sensor_id;sensor_type;location;lat;lon;timestamp;pressure;altitude;pressure_sealevel;temperature;humidity
29535;BME280;72082;52.650;8.116;2024-03-17T00:00:25;102038.69;;;6.10;100.00
29535;BME280;72082;52.650;8.116;2024-03-17T00:02:51;102041.06;;;6.05;100.00
29535;BME280;72082;52.650;8.116;2024-03-17T00:05:16;102039.34;;;6.04;100.00
29535;BME280;72082;52.650;8.116;2024-03-17T00:07:41;102039.16;;;6.00;100.00
29535;BME280;72082;52.650;8.116;2024-03-17T00:10:07;102042.44;;;5.97;100.00
29535;BME280;72082;52.650;8.116;2024-03-17T00:12:33;102039.81;;;5.94;100.00
29535;BME280;72082;52.650;8.116;2024-03-17T00:14:58;102039.72;;;5.91;100.00
29535;BME280;72082;52.650;8.116;2024-03-17T00:17:24;102040.50;;;5.90;100.00
29535;BME280;72082;52.650;8.116;2024-03-17T00:19:49;102036.22;;;5.89;100.00
29535;BME280;72082;52.650;8.116;2024-03-17T00:22:14;102037.84;;;5.87;100.00
29535;BME280;72082;52.650;8.116;2024-03-17T00:24:43;102035.97;;;5.83;100.00
29535;BME280;72082;52.650;8.116;2024-03-17T00:27:09;102034.72;;;5.72;100.00
29535;BME280;72082;52.650;8.116;2024-03-17T00:29:35;102039.41;;;5.61;100.00
29535;BME280;72082;52.650;8.116;2024-03-17T00:32:00;102045.22;;;5.59;100.00
29535;BME280;72082;52.650;8.116;2024-03-17T00:34:25;102045.84;;;5.53;100.00
29535;BME280;72082;52.650;8.116;2024-03-17T00:36:50;102037.28;;;5.50;100.00
29535;BME280;72082;52.650;8.116;2024-03-17T00:39:16;102042.44;;;5.53;100.00
29535;BME280;72082;52.650;8.116;2024-03-17T00:41:41;102044.19;;;5.54;100.00
29535;BME280;72082;52.650;8.116;2024-03-17T00:44:06;102039.16;;;5.55;100.00
29535;BME280;72082;52.650;8.116;2024-03-17T00:46:32;102037.47;;;5.56;100.00
29535;BME280;72082;52.650;8.116;2024-03-17T00:48:58;102034.94;;;5.56;100.00
29535;BME280;72082;52.650;8.116;2024-03-17T00:51:24;102032.34;;;5.54;100.00
29535;BME280;72082;52.650;8.116;2024-03-17T00:53:49;102038.31;;;5.55;100.00
29535;BME280;72082;52.650;8.116;2024-03-17T00:56:14;102034.81;;;5.53;100.00
29535;BME280;72082;52.650;8.116;2024-03-17T00:58:39;102026.34;;;5.52;100.00
29535;BME280;72082;52.650;8.116;2024-03-17T01:01:05;102024.56;;;5.50;100.00
29535;BME280;72082;52.650;8.116;2024-03-17T01:03:30;102034.72;;;5.50;100.00
29535;BME280;72082;52.650;8.116;2024-03-17T01:05:55;102028.69;;;5.48;100.00
29535;BME280;72082;52.650;8.116;2024-03-17T01:08:21;102024.31;;;5.44;100.00
29535;BME280;72082;52.650;8.116;2024-03-17T01:10:47;102020.84;;;5.42;100.00
29535;BME280;72082;52.650;8.116;2024-03-17T01:13:13;102023.31;;;5.40;100.00
29535;BME280;72082;52.650;8.116;2024-03-17T01:15:39;102019.00;;;5.38;100.00
29535;BME280;72082;52.650;8.116;2024-03-17T01:18:05;102014.66;;;5.35;100.00
29535;BME280;72082;52.650;8.116;2024-03-17T01:20:31;102014.63;;;5.34;100.00
29535;BME280;72082;52.650;8.116;2024-03-17T01:22:57;102021.31;;;5.32;100.00
29535;BME280;72082;52.650;8.116;2024-03-17T01:25:22;102020.31;;;5.28;100.00
29535;BME280;72082;52.650;8.116;2024-03-17T01:27:48;102021.94;;;5.26;100.00
29535;BME280;72082;52.650;8.116;2024-03-17T01:30:13;102017.53;;;5.22;100.00
29535;BME280;72082;52.650;8.116;2024-03-17T01:32:38;102015.69;;;5.18;100.00
29535;BME280;72082;52.650;8.116;2024-03-17T01:35:04;102013.91;;;5.16;100.00
29535;BME280;72082;52.650;8.116;2024-03-17T01:37:29;102013.78;;;5.13;100.00
29535;BME280;72082;52.650;8.116;2024-03-17T01:39:55;102018.00;;;5.12;100.00
29535;BME280;72082;52.650;8.116;2024-03-17T01:42:20;102016.19;;;5.10;100.00
29535;BME280;72082;52.650;8.116;2024-03-17T01:44:45;102005.91;;;5.07;100.00
29535;BME280;72082;52.650;8.116;2024-03-17T01:47:10;102007.53;;;5.05;100.00
29535;BME280;72082;52.650;8.116;2024-03-17T01:49:36;101999.78;;;5.02;100.00
29535;BME280;72082;52.650;8.116;2024-03-17T01:52:02;102002.19;;;4.98;100.00
29535;BME280;72082;52.650;8.116;2024-03-17T01:54:27;102000.47;;;4.97;100.00
29535;BME280;72082;52.650;8.116;2024-03-17T01:56:52;101999.53;;;4.95;100.00
29535;BME280;72082;52.650;8.116;2024-03-17T01:59:18;101999.44;;;4.92;100.00
29535;BME280;72082;52.650;8.116;2024-03-17T02:01:43;102004.38;;;4.89;100.00
29535;BME280;72082;52.650;8.116;2024-03-17T02:04:09;102000.72;;;4.83;100.00
29535;BME280;72082;52.650;8.116;2024-03-17T02:06:34;101997.13;;;4.78;100.00
29535;BME280;72082;52.650;8.116;2024-03-17T02:08:59;102000.41;;;4.75;100.00
29535;BME280;72082;52.650;8.116;2024-03-17T02:11:32;102001.25;;;4.74;100.00
29535;BME280;72082;52.650;8.116;2024-03-17T02:13:58;101993.50;;;4.71;100.00
29535;BME280;72082;52.650;8.116;2024-03-17T02:16:24;101996.78;;;4.69;100.00
29535;BME280;72082;52.650;8.116;2024-03-17T02:18:57;101994.78;;;4.62;100.00
29535;BME280;72082;52.650;8.116;2024-03-17T02:21:22;101985.25;;;4.56;100.00
29535;BME280;72082;52.650;8.116;2024-03-17T02:23:48;101985.13;;;4.53;100.00
29535;BME280;72082;52.650;8.116;2024-03-17T02:26:13;101990.22;;;4.53;100.00
29535;BME280;72082;52.650;8.116;2024-03-17T02:28:40;101986.84;;;4.54;100.00
29535;BME280;72082;52.650;8.116;2024-03-17T02:31:07;101983.50;;;4.55;100.00
29535;BME280;72082;52.650;8.116;2024-03-17T02:33:33;101987.84;;;4.58;100.00
29535;BME280;72082;52.650;8.116;2024-03-17T02:35:58;101987.72;;;4.55;100.00
29535;BME280;72082;52.650;8.116;2024-03-17T02:38:23;101985.13;;;4.53;100.00
29535;BME280;72082;52.650;8.116;2024-03-17T02:40:49;101983.38;;;4.52;100.00
29535;BME280;72082;52.650;8.116;2024-03-17T02:43:14;101989.34;;;4.53;100.00
29535;BME280;72082;52.650;8.116;2024-03-17T02:45:39;101984.25;;;4.53;100.00
29535;BME280;72082;52.650;8.116;2024-03-17T02:48:05;101987.59;;;4.52;100.00
29535;BME280;72082;52.650;8.116;2024-03-17T02:50:30;101988.50;;;4.54;100.00
29535;BME280;72082;52.650;8.116;2024-03-17T02:52:55;101979.22;;;4.54;100.00
29535;BME280;72082;52.650;8.116;2024-03-17T02:55:21;101979.19;;;4.53;100.00
29535;BME280;72082;52.650;8.116;2024-03-17T02:57:46;101976.56;;;4.51;100.00
29535;BME280;72082;52.650;8.116;2024-03-17T03:00:11;101976.47;;;4.48;100.00
29535;BME280;72082;52.650;8.116;2024-03-17T03:02:37;101984.72;;;4.44;100.00
29535;BME280;72082;52.650;8.116;2024-03-17T03:05:02;101980.47;;;4.43;100.00
29535;BME280;72082;52.650;8.116;2024-03-17T03:07:28;101986.34;;;4.42;100.00
29535;BME280;72082;52.650;8.116;2024-03-17T03:09:53;101979.53;;;4.41;100.00
29535;BME280;72082;52.650;8.116;2024-03-17T03:12:18;101980.41;;;4.42;100.00
29535;BME280;72082;52.650;8.116;2024-03-17T03:14:43;101980.34;;;4.40;100.00
29535;BME280;72082;52.650;8.116;2024-03-17T03:17:09;101981.22;;;4.41;100.00
29535;BME280;72082;52.650;8.116;2024-03-17T03:19:34;101975.31;;;4.42;100.00
29535;BME280;72082;52.650;8.116;2024-03-17T03:21:59;101973.63;;;4.41;100.00
29535;BME280;72082;52.650;8.116;2024-03-17T03:24:24;101978.69;;;4.41;100.00
29535;BME280;72082;52.650;8.116;2024-03-17T03:26:50;101976.06;;;4.39;100.00
29535;BME280;72082;52.650;8.116;2024-03-17T03:29:15;101981.16;;;4.39;100.00
29535;BME280;72082;52.650;8.116;2024-03-17T03:31:40;101977.72;;;4.38;100.00
29535;BME280;72082;52.650;8.116;2024-03-17T03:34:06;101983.75;;;4.41;100.00
29535;BME280;72082;52.650;8.116;2024-03-17T03:36:31;101985.44;;;4.40;100.00
29535;BME280;72082;52.650;8.116;2024-03-17T03:38:57;101985.44;;;4.40;100.00
29535;BME280;72082;52.650;8.116;2024-03-17T03:41:23;101987.88;;;4.38;100.00
29535;BME280;72082;52.650;8.116;2024-03-17T03:43:48;101980.22;;;4.37;100.00
29535;BME280;72082;52.650;8.116;2024-03-17T03:46:14;101981.00;;;4.36;100.00
29535;BME280;72082;52.650;8.116;2024-03-17T03:48:39;101975.94;;;4.36;100.00
29535;BME280;72082;52.650;8.116;2024-03-17T03:51:05;101969.16;;;4.35;100.00
29535;BME280;72082;52.650;8.116;2024-03-17T03:53:35;101970.72;;;4.33;100.00
29535;BME280;72082;52.650;8.116;2024-03-17T03:56:03;101970.72;;;4.33;100.00
29535;BME280;72082;52.650;8.116;2024-03-17T03:58:28;101973.22;;;4.31;100.00
29535;BME280;72082;52.650;8.116;2024-03-17T04:00:54;101975.69;;;4.30;100.00
29535;BME280;72082;52.650;8.116;2024-03-17T04:03:20;101972.28;;;4.29;100.00
29535;BME280;72082;52.650;8.116;2024-03-17T04:05:45;101978.09;;;4.27;100.00
29535;BME280;72082;52.650;8.116;2024-03-17T04:08:10;101981.38;;;4.24;100.00
29535;BME280;72082;52.650;8.116;2024-03-17T04:10:35;101976.22;;;4.23;100.00
29535;BME280;72082;52.650;8.116;2024-03-17T04:13:01;101977.78;;;4.19;100.00
29535;BME280;72082;52.650;8.116;2024-03-17T04:15:26;101981.84;;;4.16;100.00
29535;BME280;72082;52.650;8.116;2024-03-17T04:17:51;101978.38;;;4.14;100.00
29535;BME280;72082;52.650;8.116;2024-03-17T04:20:17;101974.06;;;4.11;100.00
29535;BME280;72082;52.650;8.116;2024-03-17T04:22:42;101971.44;;;4.10;100.00
29535;BME280;72082;52.650;8.116;2024-03-17T04:25:08;101982.31;;;4.07;100.00
29535;BME280;72082;52.650;8.116;2024-03-17T04:27:33;101990.59;;;4.03;100.00
29535;BME280;72082;52.650;8.116;2024-03-17T04:29:59;101984.53;;;4.00;100.00
29535;BME280;72082;52.650;8.116;2024-03-17T04:32:25;101989.53;;;3.98;100.00
29535;BME280;72082;52.650;8.116;2024-03-17T04:34:51;101995.34;;;3.96;100.00
29535;BME280;72082;52.650;8.116;2024-03-17T04:37:16;101991.84;;;3.94;100.00
29535;BME280;72082;52.650;8.116;2024-03-17T04:39:43;101996.00;;;3.92;100.00
29535;BME280;72082;52.650;8.116;2024-03-17T04:42:09;101985.84;;;3.92;100.00
29535;BME280;72082;52.650;8.116;2024-03-17T04:44:34;101990.00;;;3.90;100.00
29535;BME280;72082;52.650;8.116;2024-03-17T04:47:00;101989.94;;;3.88;100.00
29535;BME280;72082;52.650;8.116;2024-03-17T04:49:25;101994.16;;;3.88;100.00
29535;BME280;72082;52.650;8.116;2024-03-17T04:51:51;101998.34;;;3.87;100.00
29535;BME280;72082;52.650;8.116;2024-03-17T04:54:16;101992.41;;;3.87;100.00
29535;BME280;72082;52.650;8.116;2024-03-17T04:56:41;101988.94;;;3.85;100.00
29535;BME280;72082;52.650;8.116;2024-03-17T04:59:07;101992.25;;;3.84;100.00
29535;BME280;72082;52.650;8.116;2024-03-17T05:01:32;101992.25;;;3.84;100.00
29535;BME280;72082;52.650;8.116;2024-03-17T05:03:57;102000.53;;;3.80;100.00
29535;BME280;72082;52.650;8.116;2024-03-17T05:06:22;101995.34;;;3.77;100.00
29535;BME280;72082;52.650;8.116;2024-03-17T05:08:48;102004.59;;;3.76;100.00
29535;BME280;72082;52.650;8.116;2024-03-17T05:11:13;101996.94;;;3.74;100.00
29535;BME280;72082;52.650;8.116;2024-03-17T05:13:38;101999.34;;;3.71;100.00
29535;BME280;72082;52.650;8.116;2024-03-17T05:16:04;101994.22;;;3.70;100.00
29535;BME280;72082;52.650;8.116;2024-03-17T05:18:29;101995.00;;;3.69;100.00
29535;BME280;72082;52.650;8.116;2024-03-17T05:21:02;102002.66;;;3.70;100.00
29535;BME280;72082;52.650;8.116;2024-03-17T05:23:28;101995.91;;;3.71;100.00
29535;BME280;72082;52.650;8.116;2024-03-17T05:25:54;102001.88;;;3.71;100.00
29535;BME280;72082;52.650;8.116;2024-03-17T05:28:19;102009.47;;;3.71;100.00
29535;BME280;72082;52.650;8.116;2024-03-17T05:30:44;102002.00;;;3.74;100.00
29535;BME280;72082;52.650;8.116;2024-03-17T05:33:10;102000.34;;;3.75;100.00
29535;BME280;72082;52.650;8.116;2024-03-17T05:35:35;102000.41;;;3.77;100.00
29535;BME280;72082;52.650;8.116;2024-03-17T05:38:00;101997.09;;;3.78;100.00
29535;BME280;72082;52.650;8.116;2024-03-17T05:40:26;101997.13;;;3.79;100.00
29535;BME280;72082;52.650;8.116;2024-03-17T05:42:51;101993.00;;;3.81;100.00
29535;BME280;72082;52.650;8.116;2024-03-17T05:45:16;101989.66;;;3.82;100.00
29535;BME280;72082;52.650;8.116;2024-03-17T05:47:41;101994.75;;;3.82;100.00
29535;BME280;72082;52.650;8.116;2024-03-17T05:50:07;101989.00;;;3.86;100.00
29535;BME280;72082;52.650;8.116;2024-03-17T05:52:32;102001.06;;;3.92;100.00
29535;BME280;72082;52.650;8.116;2024-03-17T05:54:58;101993.59;;;3.95;100.00
29535;BME280;72082;52.650;8.116;2024-03-17T05:57:23;101986.19;;;3.99;100.00
29535;BME280;72082;52.650;8.116;2024-03-17T05:59:48;101996.56;;;4.04;100.00
29535;BME280;72082;52.650;8.116;2024-03-17T06:02:14;101984.06;;;4.08;100.00
29535;BME280;72082;52.650;8.116;2024-03-17T06:04:39;101982.59;;;4.13;100.00
29535;BME280;72082;52.650;8.116;2024-03-17T06:07:04;101988.78;;;4.20;100.00
29535;BME280;72082;52.650;8.116;2024-03-17T06:09:29;101983.97;;;4.26;100.00
29535;BME280;72082;52.650;8.116;2024-03-17T06:11:55;101980.09;;;4.34;100.00
29535;BME280;72082;52.650;8.116;2024-03-17T06:14:20;101970.19;;;4.40;100.00
29535;BME280;72082;52.650;8.116;2024-03-17T06:16:46;101963.78;;;4.48;100.00
29535;BME280;72082;52.650;8.116;2024-03-17T06:19:11;101959.78;;;4.55;100.00
29535;BME280;72082;52.650;8.116;2024-03-17T06:21:37;101963.47;;;4.61;100.00
29535;BME280;72082;52.650;8.116;2024-03-17T06:24:03;101967.97;;;4.68;100.00
29535;BME280;72082;52.650;8.116;2024-03-17T06:26:28;101968.22;;;4.74;100.00
29535;BME280;72082;52.650;8.116;2024-03-17T06:28:53;101970.13;;;4.80;100.00
29535;BME280;72082;52.650;8.116;2024-03-17T06:31:18;101967.03;;;4.87;100.00
29535;BME280;72082;52.650;8.116;2024-03-17T06:33:44;101962.19;;;4.93;100.00
29535;BME280;72082;52.650;8.116;2024-03-17T06:36:09;101962.38;;;4.97;100.00
29535;BME280;72082;52.650;8.116;2024-03-17T06:38:34;101971.06;;;5.03;100.00
29535;BME280;72082;52.650;8.116;2024-03-17T06:40:59;101967.81;;;5.07;100.00
29535;BME280;72082;52.650;8.116;2024-03-17T06:43:25;101974.75;;;5.11;100.00
29535;BME280;72082;52.650;8.116;2024-03-17T06:45:57;101966.50;;;5.16;100.00
29535;BME280;72082;52.650;8.116;2024-03-17T06:48:23;101972.69;;;5.23;100.00
29535;BME280;72082;52.650;8.116;2024-03-17T06:50:48;101967.84;;;5.29;100.00
29535;BME280;72082;52.650;8.116;2024-03-17T06:53:13;101972.22;;;5.33;100.00
29535;BME280;72082;52.650;8.116;2024-03-17T06:55:39;101973.31;;;5.39;100.00
29535;BME280;72082;52.650;8.116;2024-03-17T06:58:04;101971.84;;;5.46;100.00
29535;BME280;72082;52.650;8.116;2024-03-17T07:00:29;101969.56;;;5.52;100.00
29535;BME280;72082;52.650;8.116;2024-03-17T07:02:55;101969.84;;;5.59;100.00
29535;BME280;72082;52.650;8.116;2024-03-17T07:05:20;101968.44;;;5.68;100.00
29535;BME280;72082;52.650;8.116;2024-03-17T07:07:45;101963.50;;;5.72;100.00
29535;BME280;72082;52.650;8.116;2024-03-17T07:10:11;101966.28;;;5.78;100.00
29535;BME280;72082;52.650;8.116;2024-03-17T07:12:37;101968.09;;;5.82;100.00
29535;BME280;72082;52.650;8.116;2024-03-17T07:15:04;101967.38;;;5.85;100.00
29535;BME280;72082;52.650;8.116;2024-03-17T07:17:29;101959.84;;;5.86;100.00
29535;BME280;72082;52.650;8.116;2024-03-17T07:19:54;101970.03;;;5.88;100.00
29535;BME280;72082;52.650;8.116;2024-03-17T07:22:20;101970.91;;;5.88;100.00
29535;BME280;72082;52.650;8.116;2024-03-17T07:24:45;101975.28;;;5.92;100.00
29535;BME280;72082;52.650;8.116;2024-03-17T07:27:10;101968.69;;;5.97;100.00
29535;BME280;72082;52.650;8.116;2024-03-17T07:29:36;101987.63;;;6.05;100.00
29535;BME280;72082;52.650;8.116;2024-03-17T07:32:01;101986.22;;;6.13;100.00
29535;BME280;72082;52.650;8.116;2024-03-17T07:34:26;101983.13;;;6.22;100.00
29535;BME280;72082;52.650;8.116;2024-03-17T07:36:51;101971.44;;;6.27;100.00
29535;BME280;72082;52.650;8.116;2024-03-17T07:39:17;101974.13;;;6.32;100.00
29535;BME280;72082;52.650;8.116;2024-03-17T07:41:42;101970.88;;;6.36;100.00
29535;BME280;72082;52.650;8.116;2024-03-17T07:44:07;101969.28;;;6.39;100.00
29535;BME280;72082;52.650;8.116;2024-03-17T07:46:32;101977.09;;;6.44;100.00
29535;BME280;72082;52.650;8.116;2024-03-17T07:48:58;101965.44;;;6.52;100.00
29535;BME280;72082;52.650;8.116;2024-03-17T07:51:23;101970.00;;;6.60;100.00
29535;BME280;72082;52.650;8.116;2024-03-17T07:53:48;101974.56;;;6.70;100.00
29535;BME280;72082;52.650;8.116;2024-03-17T07:56:15;101974.00;;;6.79;100.00
29535;BME280;72082;52.650;8.116;2024-03-17T07:58:42;101979.41;;;6.88;100.00
29535;BME280;72082;52.650;8.116;2024-03-17T08:01:12;101977.13;;;6.97;100.00
29535;BME280;72082;52.650;8.116;2024-03-17T08:03:39;101974.88;;;7.06;100.00
29535;BME280;72082;52.650;8.116;2024-03-17T08:06:06;101960.69;;;7.14;100.00
29535;BME280;72082;52.650;8.116;2024-03-17T08:08:32;101963.41;;;7.20;100.00
29535;BME280;72082;52.650;8.116;2024-03-17T08:10:58;101958.41;;;7.23;100.00
29535;BME280;72082;52.650;8.116;2024-03-17T08:13:24;101957.72;;;7.29;100.00
29535;BME280;72082;52.650;8.116;2024-03-17T08:15:57;101962.16;;;7.36;100.00
29535;BME280;72082;52.650;8.116;2024-03-17T08:18:23;101961.53;;;7.43;100.00
29535;BME280;72082;52.650;8.116;2024-03-17T08:20:48;101966.88;;;7.51;100.00
29535;BME280;72082;52.650;8.116;2024-03-17T08:23:14;101977.22;;;7.57;100.00
29535;BME280;72082;52.650;8.116;2024-03-17T08:25:39;101972.31;;;7.63;100.00
29535;BME280;72082;52.650;8.116;2024-03-17T08:28:05;101973.34;;;7.69;100.00
29535;BME280;72082;52.650;8.116;2024-03-17T08:30:30;101978.63;;;7.75;100.00
29535;BME280;72082;52.650;8.116;2024-03-17T08:32:56;101973.59;;;7.78;100.00
29535;BME280;72082;52.650;8.116;2024-03-17T08:35:22;101969.53;;;7.85;100.00
29535;BME280;72082;52.650;8.116;2024-03-17T08:37:47;101979.91;;;7.91;100.00
29535;BME280;72082;52.650;8.116;2024-03-17T08:40:12;101970.69;;;7.96;100.00
29535;BME280;72082;52.650;8.116;2024-03-17T08:42:37;101982.75;;;8.01;100.00
29535;BME280;72082;52.650;8.116;2024-03-17T08:45:03;101978.69;;;8.08;100.00
29535;BME280;72082;52.650;8.116;2024-03-17T08:47:29;101977.16;;;8.15;100.00
29535;BME280;72082;52.650;8.116;2024-03-17T08:49:54;101979.00;;;8.20;100.00
29535;BME280;72082;52.650;8.116;2024-03-17T08:52:19;101980.00;;;8.25;100.00
29535;BME280;72082;52.650;8.116;2024-03-17T08:54:49;101985.25;;;8.30;100.00
29535;BME280;72082;52.650;8.116;2024-03-17T08:57:14;101987.06;;;8.34;100.00
29535;BME280;72082;52.650;8.116;2024-03-17T08:59:39;101984.66;;;8.40;100.00
29535;BME280;72082;52.650;8.116;2024-03-17T09:02:05;101986.47;;;8.44;100.00
29535;BME280;72082;52.650;8.116;2024-03-17T09:04:34;101989.97;;;8.47;100.00
29535;BME280;72082;52.650;8.116;2024-03-17T09:06:59;101990.09;;;8.52;100.00
29535;BME280;72082;52.650;8.116;2024-03-17T09:09:25;101979.97;;;8.56;100.00
29535;BME280;72082;52.650;8.116;2024-03-17T09:11:50;101978.41;;;8.61;100.00
29535;BME280;72082;52.650;8.116;2024-03-17T09:14:15;101971.81;;;8.71;100.00
29535;BME280;72082;52.650;8.116;2024-03-17T09:16:40;101975.47;;;8.81;100.00
29535;BME280;72082;52.650;8.116;2024-03-17T09:19:08;101976.56;;;8.92;100.00
29535;BME280;72082;52.650;8.116;2024-03-17T09:21:34;101976.03;;;9.05;100.00
29535;BME280;72082;52.650;8.116;2024-03-17T09:23:59;101975.44;;;9.16;100.00
29535;BME280;72082;52.650;8.116;2024-03-17T09:26:24;101977.44;;;9.28;100.00
29535;BME280;72082;52.650;8.116;2024-03-17T09:28:49;101975.94;;;9.39;100.00
29535;BME280;72082;52.650;8.116;2024-03-17T09:31:15;101959.16;;;9.52;100.00
29535;BME280;72082;52.650;8.116;2024-03-17T09:33:40;101968.06;;;9.69;100.00
29535;BME280;72082;52.650;8.116;2024-03-17T09:36:07;101963.22;;;9.84;100.00
29535;BME280;72082;52.650;8.116;2024-03-17T09:38:33;101960.13;;;10.00;100.00
29535;BME280;72082;52.650;8.116;2024-03-17T09:41:00;101954.56;;;10.19;100.00
29535;BME280;72082;52.650;8.116;2024-03-17T09:43:26;101961.53;;;10.28;100.00
29535;BME280;72082;52.650;8.116;2024-03-17T09:45:51;101955.63;;;10.33;100.00
29535;BME280;72082;52.650;8.116;2024-03-17T09:48:17;101957.38;;;10.34;100.00
29535;BME280;72082;52.650;8.116;2024-03-17T09:50:51;101951.53;;;10.43;100.00
29535;BME280;72082;52.650;8.116;2024-03-17T09:53:16;101954.28;;;10.53;100.00
29535;BME280;72082;52.650;8.116;2024-03-17T09:55:44;101954.38;;;10.61;100.00
29535;BME280;72082;52.650;8.116;2024-03-17T09:58:15;101957.88;;;10.65;100.00
29535;BME280;72082;52.650;8.116;2024-03-17T10:00:41;101963.00;;;10.63;100.00
29535;BME280;72082;52.650;8.116;2024-03-17T10:03:06;101966.31;;;10.58;100.00
29535;BME280;72082;52.650;8.116;2024-03-17T10:05:31;101961.19;;;10.59;100.00
29535;BME280;72082;52.650;8.116;2024-03-17T10:07:57;101952.69;;;10.60;100.00
29535;BME280;72082;52.650;8.116;2024-03-17T10:10:22;101952.75;;;10.63;100.00
29535;BME280;72082;52.650;8.116;2024-03-17T10:12:51;101950.28;;;10.71;100.00
29535;BME280;72082;52.650;8.116;2024-03-17T10:15:17;101956.31;;;10.74;100.00
29535;BME280;72082;52.650;8.116;2024-03-17T10:17:43;101952.09;;;10.76;100.00
29535;BME280;72082;52.650;8.116;2024-03-17T10:20:19;101946.97;;;10.78;100.00
29535;BME280;72082;52.650;8.116;2024-03-17T10:25:23;101943.09;;;11.02;100.00
29535;BME280;72082;52.650;8.116;2024-03-17T10:27:48;101927.94;;;11.21;100.00
29535;BME280;72082;52.650;8.116;2024-03-17T10:30:18;101927.38;;;11.43;100.00
29535;BME280;72082;52.650;8.116;2024-03-17T10:32:44;101927.59;;;11.61;100.00
29535;BME280;72082;52.650;8.116;2024-03-17T10:35:32;101917.56;;;11.79;100.00
29535;BME280;72082;52.650;8.116;2024-03-17T10:38:00;101920.31;;;11.97;100.00
29535;BME280;72082;52.650;8.116;2024-03-17T10:40:26;101928.19;;;12.14;100.00
29535;BME280;72082;52.650;8.116;2024-03-17T10:42:52;101926.59;;;12.26;100.00
29535;BME280;72082;52.650;8.116;2024-03-17T10:45:18;101922.34;;;12.31;100.00
29535;BME280;72082;52.650;8.116;2024-03-17T10:47:52;101921.53;;;12.38;100.00
29535;BME280;72082;52.650;8.116;2024-03-17T10:50:22;101918.19;;;12.43;100.00
29535;BME280;72082;52.650;8.116;2024-03-17T10:52:49;101925.91;;;12.47;100.00
29535;BME280;72082;52.650;8.116;2024-03-17T10:55:25;101919.97;;;12.53;100.00
29535;BME280;72082;52.650;8.116;2024-03-17T10:57:55;101926.84;;;12.57;100.00
29535;BME280;72082;52.650;8.116;2024-03-17T11:00:21;101928.50;;;12.52;100.00
29535;BME280;72082;52.650;8.116;2024-03-17T11:02:48;101933.59;;;12.43;100.00
29535;BME280;72082;52.650;8.116;2024-03-17T11:05:16;101940.41;;;12.39;100.00
29535;BME280;72082;52.650;8.116;2024-03-17T11:07:44;101939.50;;;12.34;100.00
29535;BME280;72082;52.650;8.116;2024-03-17T11:10:14;101937.84;;;12.37;100.00
29535;BME280;72082;52.650;8.116;2024-03-17T11:17:46;101936.28;;;12.58;100.00
29535;BME280;72082;52.650;8.116;2024-03-17T11:20:38;101932.09;;;12.69;100.00
29535;BME280;72082;52.650;8.116;2024-03-17T11:23:01;101940.75;;;12.83;100.00
29535;BME280;72082;52.650;8.116;2024-03-17T11:27:56;101926.44;;;13.20;100.00
29535;BME280;72082;52.650;8.116;2024-03-17T11:35:52;101925.94;;;14.36;100.00
29535;BME280;72082;52.650;8.116;2024-03-17T11:46:43;101924.81;;;15.61;100.00
29535;BME280;72082;52.650;8.116;2024-03-17T11:52:02;101923.84;;;15.87;100.00
29535;BME280;72082;52.650;8.116;2024-03-17T11:54:30;101925.53;;;15.85;100.00
29535;BME280;72082;52.650;8.116;2024-03-17T11:57:00;101927.31;;;15.79;100.00
29535;BME280;72082;52.650;8.116;2024-03-17T11:59:26;101929.06;;;15.72;100.00
29535;BME280;72082;52.650;8.116;2024-03-17T12:01:52;101929.84;;;15.92;100.00
29535;BME280;72082;52.650;8.116;2024-03-17T12:04:21;101924.91;;;16.76;100.00
29535;BME280;72082;52.650;8.116;2024-03-17T12:06:51;101905.47;;;17.13;100.00
29535;BME280;72082;52.650;8.116;2024-03-17T12:12:03;101903.91;;;18.80;100.00
29535;BME280;72082;52.650;8.116;2024-03-17T12:14:28;101918.56;;;18.84;100.00
29535;BME280;72082;52.650;8.116;2024-03-17T12:17:01;101911.28;;;19.03;100.00
29535;BME280;72082;52.650;8.116;2024-03-17T12:19:29;101911.34;;;19.83;100.00
29535;BME280;72082;52.650;8.116;2024-03-17T12:21:56;101904.16;;;20.30;100.00
29535;BME280;72082;52.650;8.116;2024-03-17T12:24:25;101900.97;;;20.53;100.00
29535;BME280;72082;52.650;8.116;2024-03-17T12:26:52;101902.44;;;20.63;100.00
29535;BME280;72082;52.650;8.116;2024-03-17T12:29:24;101899.19;;;20.87;100.00
29535;BME280;72082;52.650;8.116;2024-03-17T12:31:51;101885.00;;;21.30;100.00
29535;BME280;72082;52.650;8.116;2024-03-17T12:34:18;101891.19;;;21.83;100.00
29535;BME280;72082;52.650;8.116;2024-03-17T12:36:43;101895.22;;;22.47;100.00
29535;BME280;72082;52.650;8.116;2024-03-17T12:39:20;101864.47;;;23.03;100.00
29535;BME280;72082;52.650;8.116;2024-03-17T12:42:13;101863.63;;;23.49;100.00
29535;BME280;72082;52.650;8.116;2024-03-17T12:47:19;101868.91;;;23.24;100.00
29535;BME280;72082;52.650;8.116;2024-03-17T12:49:55;101861.56;;;22.87;100.00
29535;BME280;72082;52.650;8.116;2024-03-17T12:52:26;101870.44;;;22.32;100.00
29535;BME280;72082;52.650;8.116;2024-03-17T12:55:09;101876.38;;;21.83;100.00
29535;BME280;72082;52.650;8.116;2024-03-17T12:57:34;101878.69;;;21.65;100.00
29535;BME280;72082;52.650;8.116;2024-03-17T12:59:59;101864.91;;;21.61;100.00
29535;BME280;72082;52.650;8.116;2024-03-17T13:02:25;101866.50;;;21.65;100.00
29535;BME280;72082;52.650;8.116;2024-03-17T13:05:13;101852.59;;;21.66;100.00
29535;BME280;72082;52.650;8.116;2024-03-17T13:07:39;101864.84;;;21.35;100.00
29535;BME280;72082;52.650;8.116;2024-03-17T13:10:04;101852.44;;;20.83;100.00
29535;BME280;72082;52.650;8.116;2024-03-17T13:12:30;101857.47;;;20.23;100.00
29535;BME280;72082;52.650;8.116;2024-03-17T13:14:55;101852.00;;;19.61;100.00